createdAt,value
2018-06-03T00:01:14.612Z,101285.75
2018-06-03T00:03:43.428Z,101285.36
2018-06-03T00:06:12.225Z,101284.98
2018-06-03T00:08:41.088Z,101290.59
2018-06-03T00:11:09.880Z,101285.47
2018-06-03T00:13:38.764Z,101284.65
2018-06-03T00:16:07.553Z,101281.20
2018-06-03T00:18:36.377Z,101282.49
2018-06-03T00:21:16.530Z,101283.81
2018-06-03T00:23:45.363Z,101282.06
2018-06-03T00:26:14.494Z,101282.52
2018-06-03T00:28:43.541Z,101277.80
2018-06-03T00:31:12.616Z,101277.36
2018-06-03T00:33:41.717Z,101278.24
2018-06-03T00:36:22.172Z,101276.12
2018-06-03T00:38:51.292Z,101276.52
2018-06-03T00:41:20.365Z,101274.35
2018-06-03T00:43:49.464Z,101265.76
2018-06-03T00:46:18.559Z,101275.23
2018-06-03T00:48:47.657Z,101275.64
2018-06-03T00:51:16.745Z,101283.83
2018-06-03T00:53:45.849Z,101279.50
2018-06-03T00:56:25.064Z,101287.26
2018-06-03T00:58:54.177Z,101282.98
2018-06-03T01:01:23.256Z,101279.07
2018-06-03T01:03:52.369Z,101279.50
2018-06-03T01:06:21.457Z,101286.39
2018-06-03T01:08:50.562Z,101285.54
2018-06-03T01:11:19.653Z,101284.23
2018-06-03T01:13:48.764Z,101283.80
2018-06-03T01:16:17.849Z,101284.65
2018-06-03T01:18:46.964Z,101283.81
2018-06-03T01:21:16.061Z,101282.94
2018-06-03T01:23:45.152Z,101282.98
2018-06-03T01:26:14.276Z,101279.53
2018-06-03T01:28:43.353Z,101276.09
2018-06-03T01:31:12.469Z,101280.84
2018-06-03T01:33:41.555Z,101282.13
2018-06-03T01:36:10.675Z,101287.31
2018-06-03T01:38:39.801Z,101279.13
2018-06-03T01:41:08.905Z,101276.55
2018-06-03T01:43:37.992Z,101274.84
2018-06-03T01:46:07.098Z,101276.99
2018-06-03T01:48:36.181Z,101277.85
2018-06-03T01:51:05.409Z,101277.45
2018-06-03T01:53:34.485Z,101280.02
2018-06-03T01:56:03.594Z,101278.31
2018-06-03T01:58:32.664Z,101273.58
2018-06-03T02:01:01.766Z,101273.59
2018-06-03T02:03:30.840Z,101269.28
2018-06-03T02:05:59.944Z,101274.03
2018-06-03T02:08:29.012Z,101258.52
2018-06-03T02:10:58.111Z,101269.70
2018-06-03T02:13:27.189Z,101274.04
2018-06-03T02:15:56.306Z,101271.48
2018-06-03T02:18:25.376Z,101267.61
2018-06-03T02:20:54.475Z,101267.19
2018-06-03T02:23:23.560Z,101262.45
2018-06-03T02:25:52.656Z,101265.46
2018-06-03T02:28:21.741Z,101268.90
2018-06-03T02:30:50.861Z,101271.91
2018-06-03T02:33:19.934Z,101271.05
2018-06-03T02:35:49.032Z,101271.47
2018-06-03T02:38:18.449Z,101265.90
2018-06-03T02:40:47.548Z,101272.36
2018-06-03T02:43:16.620Z,101271.06
2018-06-03T02:45:45.733Z,101261.18
2018-06-03T02:48:14.813Z,101268.05
2018-06-03T02:50:43.916Z,101264.60
2018-06-03T02:53:13.016Z,101262.47
2018-06-03T02:55:42.121Z,101270.66
2018-06-03T02:58:11.202Z,101272.38
2018-06-03T03:00:40.309Z,101264.17
2018-06-03T03:03:09.397Z,101258.58
2018-06-03T03:05:38.492Z,101256.42
2018-06-03T03:08:07.576Z,101264.17
2018-06-03T03:10:36.686Z,101265.91
2018-06-03T03:13:05.776Z,101262.02
2018-06-03T03:15:34.873Z,101271.94
2018-06-03T03:18:03.955Z,101274.52
2018-06-03T03:20:33.057Z,101277.09
2018-06-03T03:23:02.145Z,101278.38
2018-06-03T03:25:31.240Z,101287.87
2018-06-03T03:28:00.324Z,101280.98
2018-06-03T03:30:29.432Z,101277.09
2018-06-03T03:32:58.511Z,101276.22
2018-06-03T03:35:27.617Z,101269.34
2018-06-03T03:37:56.729Z,101280.09
2018-06-03T03:40:25.845Z,101279.66
2018-06-03T03:42:54.921Z,101275.80
2018-06-03T03:45:24.024Z,101284.42
2018-06-03T03:47:53.104Z,101283.55
2018-06-03T03:50:22.217Z,101274.06
2018-06-03T03:52:51.292Z,101277.52
2018-06-03T03:55:20.387Z,101275.79
2018-06-03T03:57:49.465Z,101278.40
2018-06-03T04:00:18.589Z,101285.72
2018-06-03T04:02:47.673Z,101286.55
2018-06-03T04:05:16.757Z,101287.42
2018-06-03T04:07:45.857Z,101288.30
2018-06-03T04:10:14.936Z,101284.83
2018-06-03T04:12:44.036Z,101292.14
2018-06-03T04:15:13.116Z,101295.61
2018-06-03T04:17:42.205Z,101286.56
2018-06-03T04:20:11.285Z,101285.27
2018-06-03T04:22:40.390Z,101286.55
2018-06-03T04:25:09.464Z,101286.55
2018-06-03T04:27:38.564Z,101282.23
2018-06-03T04:30:07.641Z,101288.25
2018-06-03T04:32:36.744Z,101296.88
2018-06-03T04:35:05.852Z,101292.13
2018-06-03T04:37:34.985Z,101293.44
2018-06-03T04:40:04.073Z,101294.28
2018-06-03T04:42:33.181Z,101297.30
2018-06-03T04:45:02.262Z,101301.56
2018-06-03T04:47:31.368Z,101300.69
2018-06-03T04:50:00.445Z,101302.41
2018-06-03T04:52:29.548Z,101298.50
2018-06-03T04:54:58.647Z,101295.03
2018-06-03T04:57:27.736Z,101303.20
2018-06-03T04:59:56.816Z,101301.03
2018-06-03T05:02:25.923Z,101301.00
2018-06-03T05:04:55.008Z,101295.81
2018-06-03T05:07:24.111Z,101296.64
2018-06-03T05:09:53.206Z,101304.84
2018-06-03T05:12:22.320Z,101297.96
2018-06-03T05:14:51.396Z,101303.49
2018-06-03T05:17:20.508Z,101302.98
2018-06-03T05:19:49.589Z,101308.12
2018-06-03T05:22:18.701Z,101305.86
2018-06-03T05:24:47.793Z,101302.30
2018-06-03T05:27:16.896Z,101302.25
2018-06-03T05:29:45.968Z,101306.52
2018-06-03T05:32:15.084Z,101303.90
2018-06-03T05:34:44.156Z,101305.11
2018-06-03T05:37:13.296Z,101306.39
2018-06-03T05:39:42.389Z,101310.71
2018-06-03T05:42:11.497Z,101299.14
2018-06-03T05:44:40.581Z,101306.95
2018-06-03T05:47:09.689Z,101307.78
2018-06-03T05:49:38.773Z,101314.73
2018-06-03T05:52:07.881Z,101313.47
2018-06-03T05:54:36.957Z,101307.91
2018-06-03T05:57:06.095Z,101317.83
2018-06-03T05:59:35.177Z,101312.22
2018-06-03T06:02:04.281Z,101325.59
2018-06-03T06:04:33.360Z,101319.98
2018-06-03T06:07:02.472Z,101322.14
2018-06-03T06:09:31.564Z,101322.14
2018-06-03T06:12:00.661Z,101320.38
2018-06-03T06:14:29.737Z,101310.45
2018-06-03T06:16:58.841Z,101319.83
2018-06-03T06:19:27.925Z,101321.47
2018-06-03T06:21:57.040Z,101324.48
2018-06-03T06:24:26.124Z,101315.37
2018-06-03T06:26:55.244Z,101325.16
2018-06-03T06:29:24.357Z,101325.16
2018-06-03T06:31:53.459Z,101324.67
2018-06-03T06:34:22.540Z,101326.75
2018-06-03T06:36:51.651Z,101330.55
2018-06-03T06:39:20.752Z,101328.20
2018-06-03T06:41:49.861Z,101332.48
2018-06-03T06:44:18.944Z,101335.82
2018-06-03T06:46:48.030Z,101332.14
2018-06-03T06:49:17.147Z,101337.97
2018-06-03T06:51:46.229Z,101339.55
2018-06-03T06:54:15.320Z,101340.80
2018-06-03T06:56:44.400Z,101341.06
2018-06-03T06:59:13.505Z,101334.41
2018-06-03T07:01:42.593Z,101339.61
2018-06-03T07:04:11.706Z,101342.84
2018-06-03T07:06:40.790Z,101342.17
2018-06-03T07:09:10.252Z,101348.08
2018-06-03T07:11:39.340Z,101337.58
2018-06-03T07:14:08.449Z,101345.67
2018-06-03T07:16:37.533Z,101340.87
2018-06-03T07:19:06.641Z,101340.80
2018-06-03T07:21:35.732Z,101339.52
2018-06-03T07:24:04.913Z,101335.19
2018-06-03T07:26:34.106Z,101340.42
2018-06-03T07:29:03.233Z,101334.22
2018-06-03T07:31:32.319Z,101331.37
2018-06-03T07:34:01.426Z,101338.31
2018-06-03T07:36:30.549Z,101335.64
2018-06-03T07:38:59.636Z,101332.86
2018-06-03T07:41:28.732Z,101336.98
2018-06-03T07:43:57.837Z,101332.59
2018-06-03T07:46:26.927Z,101332.09
2018-06-03T07:48:56.877Z,101333.92
2018-06-03T07:51:25.961Z,101336.88
2018-06-03T07:53:55.065Z,101338.51
2018-06-03T07:56:24.144Z,101343.89
2018-06-03T07:58:53.237Z,101340.02
2018-06-03T08:01:22.321Z,101333.75
2018-06-03T08:03:51.441Z,101334.78
2018-06-03T08:06:20.513Z,101332.20
2018-06-03T08:08:49.725Z,101336.83
2018-06-03T08:11:18.884Z,101340.91
2018-06-03T08:13:48.188Z,101343.95
2018-06-03T08:16:17.296Z,101339.96
2018-06-03T08:18:46.413Z,101338.34
2018-06-03T08:21:15.488Z,101336.14
2018-06-03T08:23:44.592Z,101335.67
2018-06-03T08:26:13.668Z,101338.09
2018-06-03T08:28:42.781Z,101337.86
2018-06-03T08:31:11.865Z,101331.48
2018-06-03T08:33:40.961Z,101328.41
2018-06-03T08:36:10.051Z,101335.06
2018-06-03T08:38:39.172Z,101336.11
2018-06-03T08:41:08.350Z,101333.17
2018-06-03T08:43:37.499Z,101328.20
2018-06-03T08:46:06.586Z,101332.65
2018-06-03T08:48:35.701Z,101334.00
2018-06-03T08:51:04.784Z,101330.16
2018-06-03T08:53:33.904Z,101332.10
2018-06-03T08:56:02.996Z,101335.28
2018-06-03T08:58:32.101Z,101331.33
2018-06-03T09:01:01.292Z,101327.80
2018-06-03T09:03:30.429Z,101332.07
2018-06-03T09:05:59.513Z,101334.89
2018-06-03T09:08:28.633Z,101333.37
2018-06-03T09:10:57.716Z,101330.88
2018-06-03T09:13:26.892Z,101331.91
2018-06-03T09:15:55.976Z,101335.20
2018-06-03T09:18:25.091Z,101327.94
2018-06-03T09:20:54.249Z,101325.90
2018-06-03T09:23:23.373Z,101326.36
2018-06-03T09:25:52.469Z,101332.37
2018-06-03T09:28:21.624Z,101331.06
2018-06-03T09:30:54.912Z,101331.82
2018-06-03T09:33:24.017Z,101321.48
2018-06-03T09:35:53.128Z,101327.36
2018-06-03T09:38:22.239Z,101325.13
2018-06-03T09:40:51.352Z,101323.33
2018-06-03T09:43:20.497Z,101327.23
2018-06-03T09:45:49.607Z,101323.58
2018-06-03T09:48:18.688Z,101319.13
2018-06-03T09:50:47.806Z,101326.66
2018-06-03T09:53:17.023Z,101321.23
2018-06-03T09:55:46.111Z,101319.79
2018-06-03T09:58:15.278Z,101321.56
2018-06-03T10:00:44.413Z,101315.02
2018-06-03T10:03:13.509Z,101315.37
2018-06-03T10:05:42.687Z,101317.59
2018-06-03T10:08:11.856Z,101316.57
2018-06-03T10:10:41.141Z,101315.11
2018-06-03T10:13:10.312Z,101320.33
2018-06-03T10:15:39.509Z,101321.19
2018-06-03T10:18:08.632Z,101320.10
2018-06-03T10:20:37.768Z,101314.95
2018-06-03T10:23:06.861Z,101321.50
2018-06-03T10:25:36.045Z,101326.53
2018-06-03T10:28:05.281Z,101323.19
2018-06-03T10:30:34.547Z,101323.92
2018-06-03T10:33:03.715Z,101324.08
2018-06-03T10:35:32.826Z,101324.23
2018-06-03T10:38:02.641Z,101316.48
2018-06-03T10:40:31.893Z,101328.98
2018-06-03T10:43:01.019Z,101320.11
2018-06-03T10:45:30.813Z,101326.41
2018-06-03T10:47:59.916Z,101327.14
2018-06-03T10:50:29.133Z,101331.36
2018-06-03T10:52:58.953Z,101325.67
2018-06-03T10:55:28.138Z,101312.70
2018-06-03T10:57:57.316Z,101311.06
2018-06-03T11:00:26.429Z,101312.16
2018-06-03T11:02:55.526Z,101308.93
2018-06-03T11:05:24.720Z,101312.13
2018-06-03T11:07:53.901Z,101309.22
2018-06-03T11:10:23.021Z,101308.68
2018-06-03T11:12:52.185Z,101309.17
2018-06-03T11:15:21.408Z,101302.59
2018-06-03T11:17:50.501Z,101305.20
2018-06-03T11:20:19.702Z,101295.47
2018-06-03T11:22:48.792Z,101297.44
2018-06-03T11:25:17.911Z,101305.09
2018-06-03T11:27:47.010Z,101301.95
2018-06-03T11:30:16.136Z,101297.95
2018-06-03T11:32:45.236Z,101288.31
2018-06-03T11:35:14.359Z,101290.03
2018-06-03T11:37:43.482Z,101296.58
2018-06-03T11:40:12.644Z,101291.35
2018-06-03T11:42:41.741Z,101295.31
2018-06-03T11:45:11.052Z,101296.84
2018-06-03T11:47:40.173Z,101290.42
2018-06-03T11:50:09.298Z,101294.58
2018-06-03T11:52:38.405Z,101297.52
2018-06-03T11:55:07.547Z,101289.08
2018-06-03T11:57:50.817Z,101293.45
2018-06-03T12:00:19.948Z,101295.61
2018-06-03T12:02:49.064Z,101299.48
2018-06-03T12:05:18.182Z,101295.78
2018-06-03T12:07:47.332Z,101294.07
2018-06-03T12:10:16.469Z,101289.70
2018-06-03T12:12:45.560Z,101289.17
2018-06-03T12:15:14.716Z,101294.28
2018-06-03T12:17:44.823Z,101291.31
2018-06-03T12:20:13.941Z,101282.44
2018-06-03T12:22:43.107Z,101288.63
2018-06-03T12:25:12.232Z,101288.47
2018-06-03T12:27:41.337Z,101285.66
2018-06-03T12:30:10.472Z,101285.25
2018-06-03T12:32:39.570Z,101282.72
2018-06-03T12:35:08.683Z,101279.05
2018-06-03T12:37:37.823Z,101271.13
2018-06-03T12:40:06.977Z,101271.91
2018-06-03T12:42:36.876Z,101269.82
2018-06-03T12:45:05.985Z,101270.39
2018-06-03T12:47:35.106Z,101268.63
2018-06-03T12:50:04.218Z,101258.09
2018-06-03T12:52:33.381Z,101259.33
2018-06-03T12:55:02.487Z,101255.57
2018-06-03T12:57:31.625Z,101250.87
2018-06-03T13:00:00.758Z,101249.55
2018-06-03T13:02:29.873Z,101250.09
2018-06-03T13:04:58.983Z,101246.29
2018-06-03T13:07:29.669Z,101253.41
2018-06-03T13:09:59.897Z,101254.71
2018-06-03T13:12:29.021Z,101244.41
2018-06-03T13:14:58.121Z,101246.65
2018-06-03T13:17:27.296Z,101248.39
2018-06-03T13:19:56.364Z,101241.22
2018-06-03T13:22:25.481Z,101241.26
2018-06-03T13:24:54.581Z,101235.55
2018-06-03T13:27:23.697Z,101230.33
2018-06-03T13:29:52.834Z,101228.09
2018-06-03T13:32:22.638Z,101222.28
2018-06-03T13:34:51.748Z,101234.14
2018-06-03T13:37:20.902Z,101221.72
2018-06-03T13:39:50.002Z,101219.37
2018-06-03T13:42:19.120Z,101216.27
2018-06-03T13:44:48.230Z,101214.38
2018-06-03T13:47:17.338Z,101213.70
2018-06-03T13:49:46.439Z,101206.69
2018-06-03T13:52:15.549Z,101209.89
2018-06-03T13:54:44.694Z,101208.44
2018-06-03T13:57:14.331Z,101206.54
2018-06-03T13:59:43.506Z,101203.33
2018-06-03T14:02:12.633Z,101202.96
2018-06-03T14:04:41.790Z,101200.69
2018-06-03T14:07:11.024Z,101196.50
2018-06-03T14:09:40.145Z,101192.25
2018-06-03T14:12:09.300Z,101193.41
2018-06-03T14:14:38.477Z,101191.47
2018-06-03T14:17:07.688Z,101189.37
2018-06-03T14:19:36.795Z,101186.55
2018-06-03T14:22:06.000Z,101181.13
2018-06-03T14:24:35.157Z,101179.13
2018-06-03T14:27:04.281Z,101180.91
2018-06-03T14:29:33.389Z,101176.81
2018-06-03T14:32:02.610Z,101180.77
2018-06-03T14:34:32.585Z,101179.16
2018-06-03T14:37:01.769Z,101177.59
2018-06-03T14:39:30.893Z,101175.58
2018-06-03T14:42:00.166Z,101168.01
2018-06-03T14:44:29.296Z,101176.10
2018-06-03T14:46:58.917Z,101171.25
2018-06-03T14:49:28.833Z,101163.60
2018-06-03T14:51:58.376Z,101168.67
2018-06-03T14:54:27.479Z,101165.58
2018-06-03T14:56:56.610Z,101159.45
2018-06-03T14:59:25.755Z,101159.48
2018-06-03T15:01:55.989Z,101155.02
2018-06-03T15:04:25.712Z,101155.63
2018-06-03T15:06:54.817Z,101152.75
2018-06-03T15:09:23.904Z,101146.13
2018-06-03T15:11:53.032Z,101157.32
2018-06-03T15:14:22.418Z,101147.47
2018-06-03T15:16:51.537Z,101139.09
2018-06-03T15:19:20.653Z,101134.25
2018-06-03T15:21:49.781Z,101136.95
2018-06-03T15:24:18.918Z,101130.27
2018-06-03T15:26:48.026Z,101131.06
2018-06-03T15:29:17.164Z,101128.98
2018-06-03T15:31:46.280Z,101126.77
2018-06-03T15:34:15.406Z,101131.92
2018-06-03T15:36:45.296Z,101128.90
2018-06-03T15:39:14.618Z,101128.29
2018-06-03T15:41:43.726Z,101123.47
2018-06-03T15:44:12.883Z,101119.47
2018-06-03T15:46:42.048Z,101121.62
2018-06-03T15:49:11.168Z,101120.02
2018-06-03T15:51:40.404Z,101110.92
2018-06-03T15:54:09.517Z,101114.80
2018-06-03T15:56:38.717Z,101112.63
2018-06-03T15:59:08.036Z,101111.33
2018-06-03T16:01:37.189Z,101114.55
2018-06-03T16:04:06.296Z,101108.33
2018-06-03T16:06:35.619Z,101111.72
2018-06-03T16:09:06.501Z,101109.30
2018-06-03T16:11:35.631Z,101110.97
2018-06-03T16:14:04.740Z,101104.94
2018-06-03T16:16:34.001Z,101099.69
2018-06-03T16:19:03.307Z,101096.17
2018-06-03T16:21:32.399Z,101095.05
2018-06-03T16:24:01.936Z,101103.12
2018-06-03T16:26:33.472Z,101094.55
2018-06-03T16:29:02.667Z,101094.29
2018-06-03T16:31:32.021Z,101093.09
2018-06-03T16:34:01.081Z,101085.49
2018-06-03T16:36:30.309Z,101085.70
2018-06-03T16:38:59.445Z,101083.22
2018-06-03T16:41:29.298Z,101081.52
2018-06-03T16:43:59.446Z,101083.80
2018-06-03T16:46:28.792Z,101082.16
2018-06-03T16:48:58.146Z,101084.32
2018-06-03T16:51:27.279Z,101077.64
2018-06-03T16:53:56.702Z,101077.19
2018-06-03T16:56:26.025Z,101078.02
2018-06-03T16:58:55.220Z,101073.59
2018-06-03T17:01:24.352Z,101074.48
2018-06-03T17:03:53.477Z,101075.61
2018-06-03T17:06:22.632Z,101066.48
2018-06-03T17:08:52.085Z,101066.45
2018-06-03T17:11:22.319Z,101068.44
2018-06-03T17:13:51.733Z,101068.78
2018-06-03T17:16:21.112Z,101067.93
2018-06-03T17:18:50.290Z,101058.77
2018-06-03T17:21:20.581Z,101060.96
2018-06-03T17:23:50.022Z,101054.55
2018-06-03T17:26:19.189Z,101058.08
2018-06-03T17:28:48.331Z,101060.80
2018-06-03T17:31:17.485Z,101056.23
2018-06-03T17:33:46.618Z,101054.86
2018-06-03T17:36:15.780Z,101053.63
2018-06-03T17:38:44.985Z,101049.72
2018-06-03T17:41:14.152Z,101043.61
2018-06-03T17:43:43.301Z,101042.34
2018-06-03T17:46:12.394Z,101044.71
2018-06-03T17:48:41.589Z,101042.86
2018-06-03T17:51:10.801Z,101040.59
2018-06-03T17:53:40.152Z,101037.02
2018-06-03T17:56:09.337Z,101032.12
2018-06-03T17:58:38.965Z,101033.28
2018-06-03T18:01:08.053Z,101031.42
2018-06-03T18:03:37.577Z,101028.37
2018-06-03T18:06:06.738Z,101027.51
2018-06-03T18:08:36.240Z,101031.94
2018-06-03T18:11:05.595Z,101026.49
2018-06-03T18:13:35.776Z,101022.55
2018-06-03T18:16:05.056Z,101021.66
2018-06-03T18:18:34.280Z,101018.12
2018-06-03T18:21:03.779Z,101017.23
2018-06-03T18:23:32.996Z,101019.97
2018-06-03T18:26:02.734Z,101014.91
2018-06-03T18:28:32.006Z,101011.44
2018-06-03T18:31:01.182Z,101007.30
2018-06-03T18:33:30.277Z,101011.72
2018-06-03T18:35:59.503Z,101005.38
2018-06-03T18:38:28.753Z,101005.45
2018-06-03T18:40:58.063Z,101011.97
2018-06-03T18:43:27.175Z,101001.67
2018-06-03T18:45:56.296Z,101008.88
2018-06-03T18:48:25.414Z,101008.50
2018-06-03T18:50:54.728Z,101003.83
2018-06-03T18:53:23.825Z,101008.73
2018-06-03T18:55:52.936Z,101007.49
2018-06-03T18:58:22.268Z,101007.18
2018-06-03T19:00:51.552Z,101009.60
2018-06-03T19:03:20.794Z,101010.17
2018-06-03T19:05:49.941Z,101013.22
2018-06-03T19:08:19.222Z,101015.09
2018-06-03T19:10:48.398Z,101006.65
2018-06-03T19:13:17.541Z,101005.16
2018-06-03T19:15:46.682Z,101006.20
2018-06-03T19:18:15.787Z,101001.73
2018-06-03T19:20:45.014Z,101004.91
2018-06-03T19:23:14.162Z,101009.81
2018-06-03T19:25:43.658Z,101006.95
2018-06-03T19:28:12.792Z,101015.25
2018-06-03T19:30:41.913Z,101012.38
2018-06-03T19:33:11.563Z,101012.74
2018-06-03T19:35:41.112Z,101008.23
2018-06-03T19:38:10.285Z,101011.69
2018-06-03T19:40:39.570Z,101005.13
2018-06-03T19:43:08.625Z,101012.98
2018-06-03T19:45:37.821Z,101013.65
2018-06-03T19:48:06.929Z,101014.61
2018-06-03T19:50:36.050Z,101017.68
2018-06-03T19:53:05.766Z,101023.09
2018-06-03T19:55:35.909Z,101020.09
2018-06-03T19:58:05.989Z,101023.22
2018-06-03T20:00:35.126Z,101024.59
2018-06-03T20:03:04.297Z,101024.74
2018-06-03T20:05:33.453Z,101032.63
2018-06-03T20:08:02.574Z,101030.52
2018-06-03T20:10:31.714Z,101025.47
2018-06-03T20:13:00.809Z,101022.97
2018-06-03T20:15:30.013Z,101028.91
2018-06-03T20:17:59.133Z,101024.05
2018-06-03T20:20:29.108Z,101025.89
2018-06-03T20:22:58.241Z,101023.83
2018-06-03T20:25:27.429Z,101022.57
2018-06-03T20:27:56.533Z,101023.95
2018-06-03T20:30:26.034Z,101025.70
2018-06-03T20:32:55.185Z,101025.36
2018-06-03T20:35:24.381Z,101023.06
2018-06-03T20:37:53.549Z,101025.55
2018-06-03T20:40:22.768Z,101022.53
2018-06-03T20:42:51.875Z,101026.52
2018-06-03T20:45:22.436Z,101023.55
2018-06-03T20:47:52.369Z,101030.39
2018-06-03T20:50:21.506Z,101031.83
2018-06-03T20:52:50.673Z,101040.09
2018-06-03T20:55:19.894Z,101039.75
2018-06-03T20:57:49.478Z,101036.96
2018-06-03T21:00:18.629Z,101036.17
2018-06-03T21:02:47.761Z,101030.06
2018-06-03T21:05:16.979Z,101032.11
2018-06-03T21:07:46.060Z,101030.39
2018-06-03T21:10:15.277Z,101038.80
2018-06-03T21:12:44.362Z,101037.20
2018-06-03T21:15:13.482Z,101040.25
2018-06-03T21:17:42.580Z,101040.77
2018-06-03T21:20:11.725Z,101035.14
2018-06-03T21:22:40.832Z,101039.99
2018-06-03T21:25:09.933Z,101039.12
2018-06-03T21:27:39.028Z,101036.91
2018-06-03T21:30:08.113Z,101042.95
2018-06-03T21:32:37.237Z,101042.95
2018-06-03T21:35:06.335Z,101038.67
2018-06-03T21:37:35.469Z,101037.81
2018-06-03T21:40:04.569Z,101038.67
2018-06-03T21:42:33.677Z,101031.78
2018-06-03T21:45:02.765Z,101039.10
2018-06-03T21:47:31.881Z,101031.42
2018-06-03T21:50:00.977Z,101028.85
2018-06-03T21:52:30.092Z,101031.09
2018-06-03T21:54:59.190Z,101032.66
2018-06-03T21:57:28.305Z,101031.43
2018-06-03T21:59:57.399Z,101027.98
2018-06-03T22:02:26.546Z,101031.02
2018-06-03T22:04:55.637Z,101031.50
2018-06-03T22:07:24.745Z,101027.63
2018-06-03T22:09:53.845Z,101034.52
2018-06-03T22:12:22.972Z,101032.51
2018-06-03T22:14:52.064Z,101031.88
2018-06-03T22:17:21.173Z,101032.30
2018-06-03T22:19:50.260Z,101033.16
2018-06-03T22:22:19.373Z,101034.15
2018-06-03T22:24:48.488Z,101037.98
2018-06-03T22:27:17.675Z,101034.64
2018-06-03T22:29:46.702Z,101034.64
2018-06-03T22:32:15.819Z,101032.91
2018-06-03T22:34:44.913Z,101033.73
2018-06-03T22:37:14.030Z,101032.93
2018-06-03T22:39:43.124Z,101022.27
2018-06-03T22:42:12.229Z,101029.05
2018-06-03T22:44:41.331Z,101027.31
2018-06-03T22:47:10.442Z,101033.05
2018-06-03T22:49:39.537Z,101034.41
2018-06-03T22:52:08.649Z,101034.04
2018-06-03T22:54:37.737Z,101042.31
2018-06-03T22:57:47.682Z,101038.53
2018-06-03T23:00:22.983Z,101034.77
2018-06-03T23:02:57.366Z,101038.38
2018-06-03T23:05:26.493Z,101038.80
2018-06-03T23:07:55.633Z,101037.02
2018-06-03T23:10:24.725Z,101036.50
2018-06-03T23:12:53.845Z,101034.77
2018-06-03T23:15:22.928Z,101017.67
2018-06-03T23:17:52.033Z,101022.75
2018-06-03T23:20:21.125Z,101032.28
2018-06-03T23:22:50.236Z,101028.40
2018-06-03T23:25:19.321Z,101026.72
2018-06-03T23:27:48.433Z,101019.39
2018-06-03T23:30:17.516Z,101014.22
2018-06-03T23:32:46.621Z,101018.97
2018-06-03T23:35:15.716Z,101006.95
2018-06-03T23:37:44.845Z,101008.72
2018-06-03T23:40:13.928Z,101011.39
2018-06-03T23:42:43.029Z,101008.81
2018-06-03T23:45:12.116Z,101011.41
2018-06-03T23:47:41.212Z,101011.79
2018-06-03T23:50:10.288Z,101011.78
2018-06-03T23:52:39.400Z,101001.91
2018-06-03T23:55:08.477Z,101004.51
2018-06-03T23:57:37.576Z,101010.20
